sensor_id;sensor_type;location;lat;lon;timestamp;pressure;altitude;pressure_sealevel;temperature;humidity
34712;BME280;20941;42.408;25.634;2023-02-03T00:01:50;99741.53;;;0.88;86.52
34712;BME280;20941;42.408;25.634;2023-02-03T00:04:15;99746.22;;;0.99;82.04
34712;BME280;20941;42.408;25.634;2023-02-03T00:06:41;99732.25;;;0.94;82.40
34712;BME280;20941;42.408;25.634;2023-02-03T00:09:07;99735.47;;;1.15;82.46
34712;BME280;20941;42.408;25.634;2023-02-03T00:11:32;99745.59;;;1.21;80.20
34712;BME280;20941;42.408;25.634;2023-02-03T00:13:58;99742.44;;;1.29;76.76
34712;BME280;20941;42.408;25.634;2023-02-03T00:16:24;99740.84;;;1.33;76.26
34712;BME280;20941;42.408;25.634;2023-02-03T00:18:49;99692.75;;;1.10;75.80
34712;BME280;20941;42.408;25.634;2023-02-03T00:21:15;99734.81;;;1.36;75.79
34712;BME280;20941;42.408;25.634;2023-02-03T00:23:41;99744.94;;;1.42;75.73
34712;BME280;20941;42.408;25.634;2023-02-03T00:26:14;99746.47;;;1.50;75.78
34712;BME280;20941;42.408;25.634;2023-02-03T00:28:40;99745.72;;;1.55;76.04
34712;BME280;20941;42.408;25.634;2023-02-03T00:31:13;99761.38;;;1.61;75.15
34712;BME280;20941;42.408;25.634;2023-02-03T00:33:39;99739.09;;;1.56;74.79
34712;BME280;20941;42.408;25.634;2023-02-03T00:36:05;99744.09;;;1.71;74.10
34712;BME280;20941;42.408;25.634;2023-02-03T00:38:31;99735.44;;;1.67;72.90
34712;BME280;20941;42.408;25.634;2023-02-03T00:40:56;99740.47;;;1.70;72.77
34712;BME280;20941;42.408;25.634;2023-02-03T00:43:22;99753.50;;;1.70;72.63
34712;BME280;20941;42.408;25.634;2023-02-03T00:45:47;99746.53;;;1.67;72.74
34712;BME280;20941;42.408;25.634;2023-02-03T00:48:13;99748.31;;;1.73;73.00
34712;BME280;20941;42.408;25.634;2023-02-03T00:50:39;99741.47;;;1.64;73.66
34712;BME280;20941;42.408;25.634;2023-02-03T00:53:05;99749.78;;;1.64;75.22
34712;BME280;20941;42.408;25.634;2023-02-03T00:55:30;99755.38;;;1.52;76.00
34712;BME280;20941;42.408;25.634;2023-02-03T00:57:56;99741.19;;;1.37;76.42
34712;BME280;20941;42.408;25.634;2023-02-03T01:00:21;99769.63;;;1.44;77.67
34712;BME280;20941;42.408;25.634;2023-02-03T01:02:47;99757.81;;;1.37;78.48
34712;BME280;20941;42.408;25.634;2023-02-03T01:05:13;99757.13;;;1.30;79.23
34712;BME280;20941;42.408;25.634;2023-02-03T01:07:38;99726.97;;;1.04;79.31
34712;BME280;20941;42.408;25.634;2023-02-03T01:10:04;99752.19;;;1.20;80.16
34712;BME280;20941;42.408;25.634;2023-02-03T01:12:31;99754.16;;;1.19;80.63
34712;BME280;20941;42.408;25.634;2023-02-03T01:14:57;99735.56;;;1.20;80.64
34712;BME280;20941;42.408;25.634;2023-02-03T01:17:23;99737.75;;;1.18;80.62
34712;BME280;20941;42.408;25.634;2023-02-03T01:19:50;99750.41;;;1.25;80.39
34712;BME280;20941;42.408;25.634;2023-02-03T01:22:16;99756.28;;;1.29;80.74
34712;BME280;20941;42.408;25.634;2023-02-03T01:24:41;99754.44;;;1.35;81.04
34712;BME280;20941;42.408;25.634;2023-02-03T01:27:07;99733.63;;;1.32;80.90
34712;BME280;20941;42.408;25.634;2023-02-03T01:29:33;99755.03;;;1.49;80.42
34712;BME280;20941;42.408;25.634;2023-02-03T01:31:59;99725.88;;;1.46;77.18
34712;BME280;20941;42.408;25.634;2023-02-03T01:34:24;99748.56;;;1.72;77.37
34712;BME280;20941;42.408;25.634;2023-02-03T01:36:50;99753.47;;;1.82;77.22
34712;BME280;20941;42.408;25.634;2023-02-03T01:39:15;99735.44;;;1.67;76.57
34712;BME280;20941;42.408;25.634;2023-02-03T01:41:41;99736.31;;;1.85;74.11
34712;BME280;20941;42.408;25.634;2023-02-03T01:47:27;99749.81;;;2.10;74.89
34712;BME280;20941;42.408;25.634;2023-02-03T01:49:58;99744.84;;;2.12;76.20
34712;BME280;20941;42.408;25.634;2023-02-03T01:52:26;99748.88;;;2.04;76.44
34712;BME280;20941;42.408;25.634;2023-02-03T01:54:55;99718.94;;;1.89;76.33
34712;BME280;20941;42.408;25.634;2023-02-03T01:57:26;99750.94;;;1.97;75.18
34712;BME280;20941;42.408;25.634;2023-02-03T01:59:56;99736.03;;;2.15;70.94
34712;BME280;20941;42.408;25.634;2023-02-03T02:02:24;99717.69;;;2.31;67.99
34712;BME280;20941;42.408;25.634;2023-02-03T02:07:33;99749.09;;;2.88;64.31
34712;BME280;20941;42.408;25.634;2023-02-03T02:10:00;99758.84;;;3.08;63.38
34712;BME280;20941;42.408;25.634;2023-02-03T02:12:26;99744.00;;;3.19;62.20
34712;BME280;20941;42.408;25.634;2023-02-03T02:14:52;99740.25;;;3.30;61.63
34712;BME280;20941;42.408;25.634;2023-02-03T02:29:27;99760.34;;;3.82;59.78
34712;BME280;20941;42.408;25.634;2023-02-03T02:45:30;99791.69;;;3.11;66.06
34712;BME280;20941;42.408;25.634;2023-02-03T02:48:12;99776.06;;;2.70;68.58
34712;BME280;20941;42.408;25.634;2023-02-03T02:50:44;99793.75;;;2.64;69.62
34712;BME280;20941;42.408;25.634;2023-02-03T02:53:12;99781.13;;;2.39;70.43
34712;BME280;20941;42.408;25.634;2023-02-03T02:55:40;99776.69;;;2.09;71.17
34712;BME280;20941;42.408;25.634;2023-02-03T02:58:10;99788.78;;;2.03;72.41
34712;BME280;20941;42.408;25.634;2023-02-03T03:00:39;99787.91;;;1.86;73.75
34712;BME280;20941;42.408;25.634;2023-02-03T03:03:20;99703.63;;;1.29;74.93
34712;BME280;20941;42.408;25.634;2023-02-03T03:05:55;99806.88;;;1.77;75.55
34712;BME280;20941;42.408;25.634;2023-02-03T03:08:31;99804.75;;;1.67;76.19
34712;BME280;20941;42.408;25.634;2023-02-03T03:10:58;99795.25;;;1.63;75.97
34712;BME280;20941;42.408;25.634;2023-02-03T03:13:30;99796.09;;;1.52;76.48
34712;BME280;20941;42.408;25.634;2023-02-03T03:15:57;99761.31;;;1.32;76.70
34712;BME280;20941;42.408;25.634;2023-02-03T03:18:27;99798.16;;;1.44;77.31
34712;BME280;20941;42.408;25.634;2023-02-03T03:20:56;99803.00;;;1.37;77.53
34712;BME280;20941;42.408;25.634;2023-02-03T03:23:32;99790.38;;;1.30;77.92
34712;BME280;20941;42.408;25.634;2023-02-03T03:26:33;99796.63;;;1.25;77.48
34712;BME280;20941;42.408;25.634;2023-02-03T03:29:17;99805.31;;;1.28;78.25
34712;BME280;20941;42.408;25.634;2023-02-03T03:31:45;99790.38;;;1.18;78.64
34712;BME280;20941;42.408;25.634;2023-02-03T03:34:12;99791.25;;;1.06;79.63
34712;BME280;20941;42.408;25.634;2023-02-03T03:36:46;99807.97;;;0.76;81.22
34712;BME280;20941;42.408;25.634;2023-02-03T03:39:24;99791.00;;;0.48;81.17
34712;BME280;20941;42.408;25.634;2023-02-03T03:44:21;99814.81;;;0.50;82.39
34712;BME280;20941;42.408;25.634;2023-02-03T03:47:18;99818.69;;;0.48;82.91
34712;BME280;20941;42.408;25.634;2023-02-03T03:49:46;99806.25;;;0.27;82.97
34712;BME280;20941;42.408;25.634;2023-02-03T03:52:17;99824.41;;;0.35;83.26
34712;BME280;20941;42.408;25.634;2023-02-03T03:54:45;99827.69;;;0.32;83.56
34712;BME280;20941;42.408;25.634;2023-02-03T03:57:15;99831.66;;;0.36;84.08
34712;BME280;20941;42.408;25.634;2023-02-03T03:59:46;99812.16;;;0.31;83.49
34712;BME280;20941;42.408;25.634;2023-02-03T04:02:13;99833.34;;;0.37;83.32
34712;BME280;20941;42.408;25.634;2023-02-03T04:04:40;99831.66;;;0.36;83.54
34712;BME280;20941;42.408;25.634;2023-02-03T04:07:07;99854.66;;;0.48;82.99
34712;BME280;20941;42.408;25.634;2023-02-03T04:09:34;99849.72;;;0.51;82.70
34712;BME280;20941;42.408;25.634;2023-02-03T04:12:03;99845.41;;;0.55;81.58
34712;BME280;20941;42.408;25.634;2023-02-03T04:14:35;99857.66;;;0.59;81.49
34712;BME280;20941;42.408;25.634;2023-02-03T04:17:04;99835.03;;;0.38;81.50
34712;BME280;20941;42.408;25.634;2023-02-03T04:19:29;99848.50;;;0.46;81.38
34712;BME280;20941;42.408;25.634;2023-02-03T04:21:55;99823.00;;;0.44;80.99
34712;BME280;20941;42.408;25.634;2023-02-03T04:24:21;99857.66;;;0.59;81.39
34712;BME280;20941;42.408;25.634;2023-02-03T04:26:46;99863.22;;;0.59;80.93
34712;BME280;20941;42.408;25.634;2023-02-03T04:29:12;99861.34;;;0.71;80.24
34712;BME280;20941;42.408;25.634;2023-02-03T04:31:37;99864.34;;;0.82;79.04
34712;BME280;20941;42.408;25.634;2023-02-03T04:34:04;99875.19;;;0.71;79.57
34712;BME280;20941;42.408;25.634;2023-02-03T04:36:29;99887.66;;;0.62;80.34
34712;BME280;20941;42.408;25.634;2023-02-03T04:38:55;99867.91;;;0.58;80.01
34712;BME280;20941;42.408;25.634;2023-02-03T04:41:20;99878.91;;;0.65;79.56
34712;BME280;20941;42.408;25.634;2023-02-03T04:43:46;99878.66;;;0.78;78.60
34712;BME280;20941;42.408;25.634;2023-02-03T04:46:12;99860.38;;;1.25;78.19
34712;BME280;20941;42.408;25.634;2023-02-03T04:48:38;99881.59;;;1.96;77.83
34712;BME280;20941;42.408;25.634;2023-02-03T04:51:05;99870.66;;;2.81;73.78
34712;BME280;20941;42.408;25.634;2023-02-03T04:53:31;99873.91;;;3.07;71.81
34712;BME280;20941;42.408;25.634;2023-02-03T04:55:58;99885.84;;;3.24;70.04
34712;BME280;20941;42.408;25.634;2023-02-03T04:58:24;99896.09;;;3.41;69.53
34712;BME280;20941;42.408;25.634;2023-02-03T05:00:53;99878.56;;;3.40;69.23
34712;BME280;20941;42.408;25.634;2023-02-03T05:03:19;99888.56;;;3.58;68.38
34712;BME280;20941;42.408;25.634;2023-02-03T05:05:44;99910.53;;;3.77;68.30
34712;BME280;20941;42.408;25.634;2023-02-03T05:08:10;99907.16;;;3.75;68.21
34712;BME280;20941;42.408;25.634;2023-02-03T05:10:36;99885.84;;;3.63;68.10
34712;BME280;20941;42.408;25.634;2023-02-03T05:13:02;99891.53;;;3.74;67.48
34712;BME280;20941;42.408;25.634;2023-02-03T05:15:27;99897.81;;;3.86;67.44
34712;BME280;20941;42.408;25.634;2023-02-03T05:17:54;99893.16;;;3.69;67.70
34712;BME280;20941;42.408;25.634;2023-02-03T05:20:20;99882.09;;;3.75;68.12
34712;BME280;20941;42.408;25.634;2023-02-03T05:22:46;99884.22;;;3.67;67.71
34712;BME280;20941;42.408;25.634;2023-02-03T05:25:12;99886.34;;;3.60;67.86
34712;BME280;20941;42.408;25.634;2023-02-03T05:27:38;99884.66;;;3.59;68.67
34712;BME280;20941;42.408;25.634;2023-02-03T05:30:05;99869.94;;;3.59;68.36
34712;BME280;20941;42.408;25.634;2023-02-03T05:32:31;99905.47;;;3.74;68.69
34712;BME280;20941;42.408;25.634;2023-02-03T05:34:56;99884.25;;;3.50;68.92
34712;BME280;20941;42.408;25.634;2023-02-03T05:37:22;99912.03;;;3.67;68.37
34712;BME280;20941;42.408;25.634;2023-02-03T05:39:48;99900.66;;;3.69;68.55
34712;BME280;20941;42.408;25.634;2023-02-03T05:42:13;99912.03;;;3.67;69.09
34712;BME280;20941;42.408;25.634;2023-02-03T05:44:39;99912.91;;;3.68;68.92
34712;BME280;20941;42.408;25.634;2023-02-03T05:47:04;99918.53;;;3.73;69.42
34712;BME280;20941;42.408;25.634;2023-02-03T05:49:30;99933.94;;;3.81;69.58
34712;BME280;20941;42.408;25.634;2023-02-03T05:51:55;99924.38;;;3.72;69.40
34712;BME280;20941;42.408;25.634;2023-02-03T05:54:21;99929.53;;;3.85;69.64
34712;BME280;20941;42.408;25.634;2023-02-03T05:56:47;99933.44;;;3.84;69.45
34712;BME280;20941;42.408;25.634;2023-02-03T05:59:12;99936.88;;;3.91;69.81
34712;BME280;20941;42.408;25.634;2023-02-03T06:01:38;99942.88;;;3.83;69.73
34712;BME280;20941;42.408;25.634;2023-02-03T06:04:04;99932.97;;;3.53;69.46
34712;BME280;20941;42.408;25.634;2023-02-03T06:06:30;99955.66;;;3.45;69.44
34712;BME280;20941;42.408;25.634;2023-02-03T06:09:04;99958.44;;;3.28;69.93
34712;BME280;20941;42.408;25.634;2023-02-03T06:11:31;99970.38;;;2.94;71.02
34712;BME280;20941;42.408;25.634;2023-02-03T06:13:57;99973.13;;;2.77;71.86
34712;BME280;20941;42.408;25.634;2023-02-03T06:16:24;99972.88;;;2.50;72.80
34712;BME280;20941;42.408;25.634;2023-02-03T06:18:53;99984.50;;;2.35;75.48
34712;BME280;20941;42.408;25.634;2023-02-03T06:21:20;99989.88;;;2.24;76.87
34712;BME280;20941;42.408;25.634;2023-02-03T06:23:46;99988.19;;;2.23;78.17
34712;BME280;20941;42.408;25.634;2023-02-03T06:26:12;99967.22;;;2.04;79.67
34712;BME280;20941;42.408;25.634;2023-02-03T06:28:37;99983.16;;;1.85;81.29
34712;BME280;20941;42.408;25.634;2023-02-03T06:31:04;100006.69;;;1.94;83.36
34712;BME280;20941;42.408;25.634;2023-02-03T06:33:30;100006.44;;;2.07;84.27
34712;BME280;20941;42.408;25.634;2023-02-03T06:35:56;100003.66;;;2.07;85.90
34712;BME280;20941;42.408;25.634;2023-02-03T06:38:23;100014.25;;;2.11;87.55
34712;BME280;20941;42.408;25.634;2023-02-03T06:40:49;100010.53;;;1.93;88.18
34712;BME280;20941;42.408;25.634;2023-02-03T06:43:15;99992.41;;;2.02;89.56
34712;BME280;20941;42.408;25.634;2023-02-03T06:45:44;100012.91;;;2.25;90.00
34712;BME280;20941;42.408;25.634;2023-02-03T06:48:10;100011.53;;;2.39;89.26
34712;BME280;20941;42.408;25.634;2023-02-03T06:50:36;99980.31;;;2.32;88.46
34712;BME280;20941;42.408;25.634;2023-02-03T06:53:03;100018.66;;;2.76;87.57
34712;BME280;20941;42.408;25.634;2023-02-03T06:55:29;100013.75;;;2.95;86.71
34712;BME280;20941;42.408;25.634;2023-02-03T06:57:56;100019.94;;;3.14;85.21
34712;BME280;20941;42.408;25.634;2023-02-03T07:00:22;100032.59;;;3.39;83.96
34712;BME280;20941;42.408;25.634;2023-02-03T07:02:56;100016.91;;;3.33;82.94
34712;BME280;20941;42.408;25.634;2023-02-03T07:05:23;100025.19;;;3.28;83.25
34712;BME280;20941;42.408;25.634;2023-02-03T07:07:49;100034.94;;;3.30;83.72
34712;BME280;20941;42.408;25.634;2023-02-03T07:10:15;100021.09;;;3.18;83.21
34712;BME280;20941;42.408;25.634;2023-02-03T07:12:41;100032.91;;;3.26;84.01
34712;BME280;20941;42.408;25.634;2023-02-03T07:15:07;100037.66;;;3.25;84.05
34712;BME280;20941;42.408;25.634;2023-02-03T07:17:32;100009.06;;;3.13;83.11
34712;BME280;20941;42.408;25.634;2023-02-03T07:19:58;100029.72;;;3.34;82.83
34712;BME280;20941;42.408;25.634;2023-02-03T07:22:23;100045.56;;;3.50;81.99
34712;BME280;20941;42.408;25.634;2023-02-03T07:24:50;100058.25;;;3.58;81.74
34712;BME280;20941;42.408;25.634;2023-02-03T07:27:16;100063.03;;;3.80;81.72
34712;BME280;20941;42.408;25.634;2023-02-03T07:29:42;100030.50;;;3.80;81.48
34712;BME280;20941;42.408;25.634;2023-02-03T07:32:07;100072.88;;;4.05;80.33
34712;BME280;20941;42.408;25.634;2023-02-03T07:34:34;100070.69;;;4.07;79.53
34712;BME280;20941;42.408;25.634;2023-02-03T07:37:00;100078.69;;;4.20;76.38
34712;BME280;20941;42.408;25.634;2023-02-03T07:39:25;100069.09;;;4.50;72.73
34712;BME280;20941;42.408;25.634;2023-02-03T07:41:51;100059.38;;;4.75;71.19
34712;BME280;20941;42.408;25.634;2023-02-03T07:44:17;100060.53;;;4.79;69.58
34712;BME280;20941;42.408;25.634;2023-02-03T07:46:42;100053.13;;;4.90;68.97
34712;BME280;20941;42.408;25.634;2023-02-03T07:49:11;100072.56;;;5.07;68.63
34712;BME280;20941;42.408;25.634;2023-02-03T07:51:36;100062.78;;;5.04;68.85
34712;BME280;20941;42.408;25.634;2023-02-03T07:54:02;100061.91;;;5.04;68.82
34712;BME280;20941;42.408;25.634;2023-02-03T07:56:28;100064.59;;;4.93;68.76
34712;BME280;20941;42.408;25.634;2023-02-03T07:58:55;100039.50;;;4.93;69.33
34712;BME280;20941;42.408;25.634;2023-02-03T08:01:20;100074.47;;;5.28;68.89
34712;BME280;20941;42.408;25.634;2023-02-03T08:03:46;100044.88;;;5.27;68.59
34712;BME280;20941;42.408;25.634;2023-02-03T08:06:12;100056.44;;;5.41;69.08
34712;BME280;20941;42.408;25.634;2023-02-03T08:08:37;100052.44;;;5.59;67.49
34712;BME280;20941;42.408;25.634;2023-02-03T08:11:03;100082.81;;;5.88;68.22
34712;BME280;20941;42.408;25.634;2023-02-03T08:13:29;100065.66;;;5.74;67.76
34712;BME280;20941;42.408;25.634;2023-02-03T08:15:54;100059.84;;;5.81;66.44
34712;BME280;20941;42.408;25.634;2023-02-03T08:18:20;100086.41;;;6.16;64.16
34712;BME280;20941;42.408;25.634;2023-02-03T08:20:46;100083.34;;;6.18;63.99
34712;BME280;20941;42.408;25.634;2023-02-03T08:23:12;100061.22;;;6.11;62.64
34712;BME280;20941;42.408;25.634;2023-02-03T08:25:38;100067.34;;;6.08;62.95
34712;BME280;20941;42.408;25.634;2023-02-03T08:28:03;100104.81;;;6.12;62.50
34712;BME280;20941;42.408;25.634;2023-02-03T08:30:30;100080.06;;;5.93;63.64
34712;BME280;20941;42.408;25.634;2023-02-03T08:32:57;100083.03;;;5.82;62.96
34712;BME280;20941;42.408;25.634;2023-02-03T08:35:22;100068.13;;;5.66;63.55
34712;BME280;20941;42.408;25.634;2023-02-03T08:37:48;100094.53;;;5.85;64.06
34712;BME280;20941;42.408;25.634;2023-02-03T08:40:14;100097.34;;;5.90;63.38
34712;BME280;20941;42.408;25.634;2023-02-03T08:42:39;100106.22;;;6.15;63.14
34712;BME280;20941;42.408;25.634;2023-02-03T08:45:05;100112.19;;;6.29;62.59
34712;BME280;20941;42.408;25.634;2023-02-03T08:47:31;100124.84;;;6.41;61.55
34712;BME280;20941;42.408;25.634;2023-02-03T08:49:56;100119.22;;;6.36;60.16
34712;BME280;20941;42.408;25.634;2023-02-03T08:52:22;100126.75;;;6.36;60.87
34712;BME280;20941;42.408;25.634;2023-02-03T08:54:48;100137.31;;;6.29;60.24
34712;BME280;20941;42.408;25.634;2023-02-03T08:57:14;100095.84;;;6.10;60.50
34712;BME280;20941;42.408;25.634;2023-02-03T08:59:41;100142.28;;;6.21;61.06
34712;BME280;20941;42.408;25.634;2023-02-03T09:02:13;100135.31;;;6.24;61.17
34712;BME280;20941;42.408;25.634;2023-02-03T09:04:38;100156.06;;;6.28;60.46
34712;BME280;20941;42.408;25.634;2023-02-03T09:07:04;100131.53;;;6.03;59.44
34712;BME280;20941;42.408;25.634;2023-02-03T09:09:30;100160.75;;;6.22;59.81
34712;BME280;20941;42.408;25.634;2023-02-03T09:11:56;100154.50;;;6.10;59.39
34712;BME280;20941;42.408;25.634;2023-02-03T09:14:30;100136.75;;;5.94;60.06
34712;BME280;20941;42.408;25.634;2023-02-03T09:16:58;100162.88;;;6.10;60.29
34712;BME280;20941;42.408;25.634;2023-02-03T09:19:24;100150.13;;;6.19;60.43
34712;BME280;20941;42.408;25.634;2023-02-03T09:21:49;100150.25;;;6.02;61.15
34712;BME280;20941;42.408;25.634;2023-02-03T09:24:16;100145.03;;;6.11;60.98
34712;BME280;20941;42.408;25.634;2023-02-03T09:26:42;100147.56;;;6.18;60.66
34712;BME280;20941;42.408;25.634;2023-02-03T09:29:08;100135.09;;;6.25;60.95
34712;BME280;20941;42.408;25.634;2023-02-03T09:31:33;100119.56;;;6.07;60.98
34712;BME280;20941;42.408;25.634;2023-02-03T09:34:00;100119.94;;;6.21;60.13
34712;BME280;20941;42.408;25.634;2023-02-03T09:36:26;100107.75;;;6.33;58.83
34712;BME280;20941;42.408;25.634;2023-02-03T09:38:51;100128.56;;;6.52;58.68
34712;BME280;20941;42.408;25.634;2023-02-03T09:41:21;100123.06;;;6.73;57.60
34712;BME280;20941;42.408;25.634;2023-02-03T09:44:03;100115.16;;;6.59;57.17
34712;BME280;20941;42.408;25.634;2023-02-03T09:46:37;100086.03;;;6.45;57.58
34712;BME280;20941;42.408;25.634;2023-02-03T09:49:17;100121.97;;;6.74;56.61
34712;BME280;20941;42.408;25.634;2023-02-03T09:51:53;100139.19;;;6.55;57.41
34712;BME280;20941;42.408;25.634;2023-02-03T09:56:47;100141.94;;;6.50;58.15
34712;BME280;20941;42.408;25.634;2023-02-03T09:59:17;100136.88;;;6.47;59.05
34712;BME280;20941;42.408;25.634;2023-02-03T10:02:06;100135.97;;;6.36;58.71
34712;BME280;20941;42.408;25.634;2023-02-03T10:04:44;100144.72;;;6.45;58.51
34712;BME280;20941;42.408;25.634;2023-02-03T10:07:33;100124.25;;;6.34;59.56
34712;BME280;20941;42.408;25.634;2023-02-03T10:13:03;100121.13;;;6.25;58.41
34712;BME280;20941;42.408;25.634;2023-02-03T10:15:58;100092.00;;;6.21;58.86
34712;BME280;20941;42.408;25.634;2023-02-03T10:18:35;100123.00;;;6.57;58.86
34712;BME280;20941;42.408;25.634;2023-02-03T10:23:49;100117.44;;;6.68;56.92
34712;BME280;20941;42.408;25.634;2023-02-03T10:26:22;100115.56;;;6.84;56.62
34712;BME280;20941;42.408;25.634;2023-02-03T10:29:01;100114.69;;;6.73;57.04
34712;BME280;20941;42.408;25.634;2023-02-03T10:31:33;100109.03;;;6.63;56.72
34712;BME280;20941;42.408;25.634;2023-02-03T10:34:13;100112.25;;;6.92;56.55
34712;BME280;20941;42.408;25.634;2023-02-03T10:39:44;100118.94;;;6.86;55.35
34712;BME280;20941;42.408;25.634;2023-02-03T10:42:10;100122.84;;;6.85;54.88
34712;BME280;20941;42.408;25.634;2023-02-03T10:44:56;100128.72;;;6.78;54.40
34712;BME280;20941;42.408;25.634;2023-02-03T10:47:53;100134.84;;;6.80;55.47
34712;BME280;20941;42.408;25.634;2023-02-03T10:50:24;100127.34;;;6.91;54.99
34712;BME280;20941;42.408;25.634;2023-02-03T10:59:05;100074.06;;;7.44;52.49
34712;BME280;20941;42.408;25.634;2023-02-03T11:01:41;100088.06;;;7.29;52.54
34712;BME280;20941;42.408;25.634;2023-02-03T11:06:57;100087.56;;;7.63;51.70
34712;BME280;20941;42.408;25.634;2023-02-03T11:09:40;100115.28;;;7.59;51.26
34712;BME280;20941;42.408;25.634;2023-02-03T11:12:12;100113.00;;;7.61;52.09
34712;BME280;20941;42.408;25.634;2023-02-03T11:14:45;100087.00;;;7.55;51.65
34712;BME280;20941;42.408;25.634;2023-02-03T11:19:48;100083.06;;;7.77;50.37
34712;BME280;20941;42.408;25.634;2023-02-03T11:22:30;100073.25;;;7.54;50.92
34712;BME280;20941;42.408;25.634;2023-02-03T11:24:58;100074.66;;;7.36;51.70
34712;BME280;20941;42.408;25.634;2023-02-03T11:27:24;100068.75;;;7.37;51.65
34712;BME280;20941;42.408;25.634;2023-02-03T11:30:10;100062.88;;;7.44;51.31
34712;BME280;20941;42.408;25.634;2023-02-03T11:32:40;100063.69;;;7.34;51.72
34712;BME280;20941;42.408;25.634;2023-02-03T11:37:44;100042.72;;;7.32;51.87
34712;BME280;20941;42.408;25.634;2023-02-03T11:42:43;100041.59;;;7.28;52.18
34712;BME280;20941;42.408;25.634;2023-02-03T11:50:33;100047.75;;;7.25;52.56
34712;BME280;20941;42.408;25.634;2023-02-03T12:07:29;100040.25;;;7.66;49.64
34712;BME280;20941;42.408;25.634;2023-02-03T12:26:20;100020.66;;;7.46;48.58
34712;BME280;20941;42.408;25.634;2023-02-03T12:34:27;99977.81;;;7.66;48.38
34712;BME280;20941;42.408;25.634;2023-02-03T12:37:04;99960.44;;;7.59;47.53
34712;BME280;20941;42.408;25.634;2023-02-03T12:39:38;99987.88;;;7.67;46.60
34712;BME280;20941;42.408;25.634;2023-02-03T12:42:28;99980.59;;;7.66;46.42
34712;BME280;20941;42.408;25.634;2023-02-03T12:45:05;99973.31;;;7.65;46.52
34712;BME280;20941;42.408;25.634;2023-02-03T12:48:01;99957.66;;;7.59;46.84
34712;BME280;20941;42.408;25.634;2023-02-03T12:50:31;99977.22;;;7.64;47.19
34712;BME280;20941;42.408;25.634;2023-02-03T12:53:13;99945.63;;;7.48;47.11
34712;BME280;20941;42.408;25.634;2023-02-03T12:55:49;99949.25;;;7.59;47.44
34712;BME280;20941;42.408;25.634;2023-02-03T12:58:23;99968.84;;;7.59;47.12
34712;BME280;20941;42.408;25.634;2023-02-03T13:01:04;99948.16;;;7.39;47.14
34712;BME280;20941;42.408;25.634;2023-02-03T13:06:42;99975.56;;;7.32;48.12
34712;BME280;20941;42.408;25.634;2023-02-03T13:09:35;99987.31;;;7.39;47.39
34712;BME280;20941;42.408;25.634;2023-02-03T13:12:15;99994.03;;;7.22;47.76
34712;BME280;20941;42.408;25.634;2023-02-03T13:14:50;99968.84;;;7.28;48.45
34712;BME280;20941;42.408;25.634;2023-02-03T13:17:26;99928.00;;;7.27;48.12
34712;BME280;20941;42.408;25.634;2023-02-03T13:19:58;99952.63;;;7.55;47.82
34712;BME280;20941;42.408;25.634;2023-02-03T13:22:25;99968.00;;;7.63;47.98
34712;BME280;20941;42.408;25.634;2023-02-03T13:30:24;99966.06;;;7.33;49.53
34712;BME280;20941;42.408;25.634;2023-02-03T13:43:59;99933.03;;;7.40;46.40
34712;BME280;20941;42.408;25.634;2023-02-03T13:46:31;99932.22;;;7.39;46.29
34712;BME280;20941;42.408;25.634;2023-02-03T13:49:00;99958.75;;;7.73;46.24
34712;BME280;20941;42.408;25.634;2023-02-03T13:51:33;99940.84;;;7.69;46.50
34712;BME280;20941;42.408;25.634;2023-02-03T13:54:13;99938.91;;;7.59;46.29
34712;BME280;20941;42.408;25.634;2023-02-03T13:56:39;99966.59;;;7.81;46.31
34712;BME280;20941;42.408;25.634;2023-02-03T13:59:26;99952.59;;;7.66;46.98
34712;BME280;20941;42.408;25.634;2023-02-03T14:07:25;99954.25;;;7.87;46.49
34712;BME280;20941;42.408;25.634;2023-02-03T14:12:35;99935.81;;;7.66;47.00
34712;BME280;20941;42.408;25.634;2023-02-03T14:15:37;99931.03;;;7.77;46.91
34712;BME280;20941;42.408;25.634;2023-02-03T14:18:30;99906.72;;;7.51;47.33
34712;BME280;20941;42.408;25.634;2023-02-03T14:21:11;99934.41;;;7.48;47.51
34712;BME280;20941;42.408;25.634;2023-02-03T14:23:42;99940.56;;;7.55;48.07
34712;BME280;20941;42.408;25.634;2023-02-03T14:26:37;99932.75;;;7.52;48.19
34712;BME280;20941;42.408;25.634;2023-02-03T14:29:06;99933.63;;;7.37;48.03
34712;BME280;20941;42.408;25.634;2023-02-03T14:31:52;99929.41;;;7.24;48.65
34712;BME280;20941;42.408;25.634;2023-02-03T14:34:28;99910.94;;;7.13;48.91
34712;BME280;20941;42.408;25.634;2023-02-03T14:36:54;99942.56;;;7.29;48.80
34712;BME280;20941;42.408;25.634;2023-02-03T14:39:39;99935.56;;;7.31;48.15
34712;BME280;20941;42.408;25.634;2023-02-03T14:47:44;99924.09;;;7.28;46.67
34712;BME280;20941;42.408;25.634;2023-02-03T14:53:42;99941.72;;;7.23;47.21
34712;BME280;20941;42.408;25.634;2023-02-03T14:59:16;99949.25;;;7.12;47.80
34712;BME280;20941;42.408;25.634;2023-02-03T15:06:43;99946.75;;;7.16;48.76
34712;BME280;20941;42.408;25.634;2023-02-03T15:09:44;99955.41;;;7.09;49.17
34712;BME280;20941;42.408;25.634;2023-02-03T15:12:22;99945.91;;;7.10;49.34
34712;BME280;20941;42.408;25.634;2023-02-03T15:14:48;99946.47;;;7.02;49.78
34712;BME280;20941;42.408;25.634;2023-02-03T15:17:22;99916.75;;;6.65;50.06
34712;BME280;20941;42.408;25.634;2023-02-03T15:19:49;99944.72;;;6.65;50.86
34712;BME280;20941;42.408;25.634;2023-02-03T15:22:22;99947.47;;;6.59;50.79
34712;BME280;20941;42.408;25.634;2023-02-03T15:24:50;99937.66;;;6.47;50.81
34712;BME280;20941;42.408;25.634;2023-02-03T15:29:46;99937.34;;;6.33;51.32
34712;BME280;20941;42.408;25.634;2023-02-03T15:32:18;99944.53;;;6.13;51.75
34712;BME280;20941;42.408;25.634;2023-02-03T15:34:50;99951.47;;;6.10;52.11
34712;BME280;20941;42.408;25.634;2023-02-03T15:37:41;99945.84;;;6.00;52.63
34712;BME280;20941;42.408;25.634;2023-02-03T15:40:11;99946.97;;;6.04;52.57
34712;BME280;20941;42.408;25.634;2023-02-03T15:45:39;99944.91;;;5.89;53.51